createdAt,value
2016-03-22T00:00:07.564Z,0
2016-03-22T00:01:07.629Z,0
2016-03-22T00:02:07.663Z,0
2016-03-22T00:03:07.635Z,0
2016-03-22T00:04:07.856Z,0
2016-03-22T00:05:07.639Z,0
2016-03-22T00:06:20.393Z,0
2016-03-22T00:07:08.333Z,0
2016-03-22T00:08:26.929Z,0
2016-03-22T00:09:07.744Z,0
2016-03-22T00:10:07.763Z,0
2016-03-22T00:11:07.750Z,0
2016-03-22T00:12:07.769Z,0
2016-03-22T00:13:07.802Z,0
2016-03-22T00:14:20.523Z,0
2016-03-22T00:15:14.074Z,0
2016-03-22T00:16:07.872Z,0
2016-03-22T00:17:20.593Z,0
2016-03-22T00:18:33.566Z,0
2016-03-22T00:19:27.115Z,0
2016-03-22T00:20:07.899Z,0
2016-03-22T00:21:07.918Z,0
2016-03-22T00:22:07.967Z,0
2016-03-22T00:23:07.970Z,0
2016-03-22T00:24:07.973Z,0
2016-03-22T00:25:14.303Z,0
2016-03-22T00:26:07.993Z,0
2016-03-22T00:27:09.481Z,0
2016-03-22T00:28:20.811Z,0
2016-03-22T00:29:20.814Z,0
2016-03-22T00:30:20.816Z,0
2016-03-22T00:31:08.084Z,0
2016-03-22T00:32:08.118Z,0
2016-03-22T00:33:14.371Z,0
2016-03-22T00:34:09.561Z,0
2016-03-22T00:35:27.376Z,0
2016-03-22T00:36:08.175Z,0
2016-03-22T00:37:27.381Z,0
2016-03-22T00:38:09.635Z,0
2016-03-22T00:39:08.324Z,0
2016-03-22T00:40:20.936Z,0
2016-03-22T00:41:14.532Z,0
2016-03-22T00:42:08.238Z,0
2016-03-22T00:43:21.023Z,0
2016-03-22T00:44:08.306Z,0
2016-03-22T00:45:21.278Z,0
2016-03-22T00:46:08.327Z,0
2016-03-22T00:47:08.362Z,0
2016-03-22T00:48:09.176Z,0
2016-03-22T00:49:08.382Z,0
2016-03-22T00:50:15.323Z,0
2016-03-22T00:51:08.434Z,0
2016-03-22T00:52:11.453Z,0
2016-03-22T00:53:21.205Z,0
2016-03-22T00:54:08.334Z,0
2016-03-22T00:55:27.539Z,0
2016-03-22T00:56:09.167Z,0
2016-03-22T00:57:08.544Z,0
2016-03-22T00:58:08.531Z,0
2016-03-22T00:59:08.549Z,0
2016-03-22T01:00:09.194Z,0
2016-03-22T01:01:08.602Z,0
2016-03-22T01:02:08.619Z,0
2016-03-22T01:03:08.639Z,0
2016-03-22T01:04:08.641Z,0
2016-03-22T01:05:21.394Z,0
2016-03-22T01:06:15.553Z,0
2016-03-22T01:07:27.915Z,0
2016-03-22T01:08:08.683Z,0
2016-03-22T01:09:34.374Z,0
2016-03-22T01:10:09.266Z,0
2016-03-22T01:11:07.988Z,0
2016-03-22T01:12:08.741Z,0
2016-03-22T01:13:14.399Z,0
2016-03-22T01:14:21.638Z,0
2016-03-22T01:15:08.827Z,0
2016-03-22T01:16:28.080Z,0
2016-03-22T01:17:08.832Z,0
2016-03-22T01:18:08.851Z,0
2016-03-22T01:19:08.869Z,0
2016-03-22T01:20:08.981Z,0
2016-03-22T01:21:08.921Z,0
2016-03-22T01:22:08.908Z,0
2016-03-22T01:23:15.224Z,0
2016-03-22T01:24:09.554Z,0
2016-03-22T01:25:08.963Z,0
2016-03-22T01:26:28.279Z,0
2016-03-22T01:27:09.016Z,0
2016-03-22T01:28:28.269Z,0
2016-03-22T01:29:09.036Z,0
2016-03-22T01:31:18.620Z,0
2016-03-22T01:32:18.623Z,0
2016-03-22T01:33:31.469Z,0
2016-03-22T01:34:18.660Z,0
2016-03-22T01:35:18.678Z,0
2016-03-22T01:36:19.321Z,0
2016-03-22T01:37:18.761Z,0
2016-03-22T01:38:18.716Z,0
2016-03-22T01:39:18.767Z,0
2016-03-22T01:40:18.769Z,0
2016-03-22T01:41:18.866Z,0
2016-03-22T01:42:31.540Z,0
2016-03-22T01:43:31.590Z,0
2016-03-22T01:44:44.468Z,0
2016-03-22T01:45:18.876Z,0
2016-03-22T01:46:50.145Z,0
2016-03-22T01:47:18.850Z,0
2016-03-22T01:48:18.916Z,0
2016-03-22T01:49:18.903Z,0
2016-03-22T01:50:19.062Z,0
2016-03-22T01:51:18.940Z,0
2016-03-22T01:52:25.473Z,0
2016-03-22T01:53:18.976Z,0
2016-03-22T01:54:19.057Z,0
2016-03-22T01:55:18.981Z,0
2016-03-22T01:56:19.265Z,0
2016-03-22T01:57:19.030Z,0
2016-03-22T01:58:19.003Z,0
2016-03-22T01:59:19.040Z,0
2016-03-22T02:00:19.029Z,0
2016-03-22T02:01:19.050Z,0
2016-03-22T02:02:19.026Z,0
2016-03-22T02:03:19.101Z,0
2016-03-22T02:04:19.068Z,0
2016-03-22T02:05:19.097Z,0
2016-03-22T02:06:25.469Z,0
2016-03-22T02:07:19.171Z,0
2016-03-22T02:08:19.126Z,0
2016-03-22T02:09:19.283Z,0
2016-03-22T02:10:19.143Z,0
2016-03-22T02:11:25.426Z,0
2016-03-22T02:12:19.146Z,0
2016-03-22T02:13:31.944Z,0
2016-03-22T02:14:19.196Z,0
2016-03-22T02:15:19.230Z,0
2016-03-22T02:16:19.356Z,0
2016-03-22T02:17:19.250Z,0
2016-03-22T02:18:20.753Z,0
2016-03-22T02:19:19.270Z,0
2016-03-22T02:20:19.351Z,0
2016-03-22T02:21:18.526Z,0
2016-03-22T02:22:20.747Z,0
2016-03-22T02:23:19.344Z,0
2016-03-22T02:24:19.378Z,0
2016-03-22T02:25:19.364Z,0
2016-03-22T02:26:38.602Z,0
2016-03-22T02:27:19.370Z,0
2016-03-22T02:28:19.419Z,0
2016-03-22T02:29:19.407Z,0
2016-03-22T02:30:20.836Z,0
2016-03-22T02:31:20.854Z,0
2016-03-22T02:32:19.451Z,0
2016-03-22T02:33:22.516Z,0
2016-03-22T02:34:19.503Z,0
2016-03-22T02:35:20.116Z,0
2016-03-22T02:36:20.931Z,0
2016-03-22T02:37:19.542Z,0
2016-03-22T02:38:19.576Z,0
2016-03-22T02:39:19.704Z,0
2016-03-22T02:40:19.628Z,0
2016-03-22T02:41:19.585Z,0
2016-03-22T02:42:19.618Z,0
2016-03-22T02:43:20.261Z,0
2016-03-22T02:44:19.687Z,0
2016-03-22T02:45:19.658Z,0
2016-03-22T02:46:32.488Z,0
2016-03-22T02:47:19.678Z,0
2016-03-22T02:48:45.369Z,0
2016-03-22T02:49:19.747Z,0
2016-03-22T02:50:19.781Z,0
2016-03-22T02:51:19.736Z,0
2016-03-22T02:52:19.833Z,0
2016-03-22T02:53:20.383Z,0
2016-03-22T02:54:19.822Z,0
2016-03-22T02:55:19.810Z,0
2016-03-22T02:56:32.625Z,0
2016-03-22T02:57:26.128Z,0
2016-03-22T02:58:19.880Z,0
2016-03-22T02:59:39.071Z,0
2016-03-22T03:00:22.963Z,0
2016-03-22T03:01:23.044Z,0
2016-03-22T03:02:23.016Z,0
2016-03-22T03:03:23.628Z,0
2016-03-22T03:04:23.037Z,0
2016-03-22T03:05:23.024Z,0
2016-03-22T03:06:23.043Z,0
2016-03-22T03:07:23.076Z,0
2016-03-22T03:08:23.110Z,0
2016-03-22T03:09:29.395Z,0
2016-03-22T03:10:23.272Z,0
2016-03-22T03:11:23.134Z,0
2016-03-22T03:12:23.168Z,0
2016-03-22T03:13:23.373Z,0
2016-03-22T03:14:23.236Z,0
2016-03-22T03:15:23.176Z,0
2016-03-22T03:16:23.256Z,0
2016-03-22T03:17:35.948Z,0
2016-03-22T03:18:36.012Z,0
2016-03-22T03:19:42.452Z,0
2016-03-22T03:20:23.300Z,0
2016-03-22T03:21:23.286Z,0
2016-03-22T03:22:23.304Z,0
2016-03-22T03:23:23.353Z,0
2016-03-22T03:24:29.591Z,0
2016-03-22T03:25:23.390Z,0
2016-03-22T03:26:42.644Z,0
2016-03-22T03:27:23.474Z,0
2016-03-22T03:28:49.070Z,0
2016-03-22T03:29:23.449Z,0
2016-03-22T03:30:24.857Z,0
2016-03-22T03:31:23.438Z,0
2016-03-22T03:32:36.237Z,0
2016-03-22T03:33:23.490Z,0
2016-03-22T03:34:23.477Z,0
2016-03-22T03:35:23.511Z,0
2016-03-22T03:36:23.513Z,0
2016-03-22T03:37:23.563Z,0
2016-03-22T03:38:23.566Z,0
2016-03-22T03:39:36.304Z,0
2016-03-22T03:40:23.649Z,0
2016-03-22T03:41:23.605Z,0
2016-03-22T03:42:23.671Z,0
2016-03-22T03:43:23.626Z,0
2016-03-22T03:44:23.692Z,0
2016-03-22T03:45:23.678Z,0
2016-03-22T03:46:23.681Z,0
2016-03-22T03:47:23.668Z,0
2016-03-22T03:48:23.734Z,0
2016-03-22T03:49:30.611Z,0
2016-03-22T03:50:23.754Z,0
2016-03-22T03:51:23.773Z,0
2016-03-22T03:52:23.806Z,0
2016-03-22T03:53:23.841Z,0
2016-03-22T03:54:23.797Z,0
2016-03-22T03:55:23.986Z,0
2016-03-22T03:56:36.567Z,0
2016-03-22T03:57:24.539Z,0
2016-03-22T03:58:23.885Z,0
2016-03-22T03:59:23.904Z,0
2016-03-22T04:00:23.907Z,0
2016-03-22T04:01:23.924Z,0
2016-03-22T04:02:23.974Z,0
2016-03-22T04:03:36.711Z,0
2016-03-22T04:04:24.010Z,0
2016-03-22T04:05:24.013Z,0
2016-03-22T04:06:24.016Z,0
2016-03-22T04:07:24.004Z,0
2016-03-22T04:08:30.287Z,0
2016-03-22T04:09:24.056Z,0
2016-03-22T04:10:36.808Z,0
2016-03-22T04:11:24.061Z,0
2016-03-22T04:12:24.235Z,0
2016-03-22T04:13:30.988Z,0
2016-03-22T04:14:30.600Z,0
2016-03-22T04:15:24.134Z,0
2016-03-22T04:16:24.153Z,0
2016-03-22T04:17:36.920Z,0
2016-03-22T04:18:24.189Z,0
2016-03-22T04:20:33.788Z,0
2016-03-22T04:21:53.010Z,0
2016-03-22T04:22:35.247Z,0
2016-03-22T04:23:59.499Z,0
2016-03-22T04:24:49.706Z,0
2016-03-22T04:26:09.086Z,0
2016-03-22T04:26:56.117Z,0
2016-03-22T04:29:02.653Z,0
2016-03-22T04:29:43.485Z,0
2016-03-22T04:31:46.724Z,0
2016-03-22T04:31:59.380Z,0
2016-03-22T04:33:05.632Z,0
2016-03-22T04:33:59.636Z,0
2016-03-22T04:35:12.110Z,0
2016-03-22T04:35:59.626Z,0
2016-03-22T04:37:12.131Z,0
2016-03-22T04:37:59.365Z,0
2016-03-22T04:39:18.652Z,0
2016-03-22T04:39:59.902Z,0
2016-03-22T04:41:25.110Z,0
2016-03-22T04:42:00.892Z,0
2016-03-22T04:44:02.069Z,0
2016-03-22T04:44:14.696Z,0
2016-03-22T04:45:14.558Z,0
2016-03-22T04:46:14.562Z,0
2016-03-22T04:47:20.923Z,0
2016-03-22T04:48:20.832Z,0
2016-03-22T04:49:33.789Z,0
2016-03-22T04:50:33.916Z,4
2016-03-22T04:51:33.840Z,4
2016-03-22T04:52:43.406Z,0
2016-03-22T04:53:17.877Z,4
2016-03-22T04:55:20.366Z,4
2016-03-22T04:55:32.788Z,4
2016-03-22T04:56:33.058Z,4
2016-03-22T04:57:32.966Z,4
2016-03-22T04:58:45.719Z,4
2016-03-22T04:59:45.580Z,8
2016-03-22T05:00:33.083Z,8
2016-03-22T05:01:52.258Z,12
2016-03-22T05:02:33.682Z,12
2016-03-22T05:03:33.076Z,12
2016-03-22T05:04:33.687Z,16
2016-03-22T05:05:33.582Z,20
2016-03-22T05:06:45.896Z,28
2016-03-22T05:07:45.962Z,36
2016-03-22T05:08:33.168Z,40
2016-03-22T05:09:58.920Z,48
2016-03-22T05:10:33.188Z,52
2016-03-22T05:12:45.959Z,68
2016-03-22T05:13:33.228Z,72
2016-03-22T05:14:58.965Z,80
2016-03-22T05:16:08.608Z,88
2016-03-22T05:18:18.148Z,124
2016-03-22T05:18:52.476Z,136
2016-03-22T05:20:55.122Z,168
2016-03-22T05:21:26.968Z,172
2016-03-22T05:22:07.765Z,180
2016-03-22T05:24:07.786Z,176
2016-03-22T05:24:20.397Z,180
2016-03-22T05:26:26.731Z,196
2016-03-22T05:27:49.437Z,212
2016-03-22T05:28:36.362Z,232
2016-03-22T05:31:05.180Z,320
2016-03-22T05:31:52.229Z,340
2016-03-22T05:34:01.344Z,396
2016-03-22T05:34:13.924Z,416
2016-03-22T05:36:23.540Z,468
2016-03-22T05:38:26.165Z,588
2016-03-22T05:39:04.305Z,620
2016-03-22T05:40:24.444Z,660
2016-03-22T05:41:04.475Z,684
2016-03-22T05:43:07.700Z,696
2016-03-22T05:43:45.969Z,684
2016-03-22T05:44:20.346Z,688
2016-03-22T05:46:22.930Z,812
2016-03-22T05:46:54.555Z,828
2016-03-22T05:47:35.526Z,884
2016-03-22T05:49:38.157Z,1052
2016-03-22T05:50:30.643Z,1136
2016-03-22T05:50:51.565Z,1172
2016-03-22T05:51:50.631Z,1268
2016-03-22T05:53:03.399Z,1364
2016-03-22T05:53:56.964Z,1440
2016-03-22T05:57:11.472Z,1716
2016-03-22T05:57:55.396Z,1844
2016-03-22T06:00:30.483Z,1996
2016-03-22T06:02:01.782Z,2072
2016-03-22T06:03:23.945Z,2120
2016-03-22T06:04:23.993Z,2192
2016-03-22T06:06:26.765Z,2472
2016-03-22T06:06:52.156Z,2528
2016-03-22T06:07:39.408Z,2764
2016-03-22T06:08:58.598Z,3116
2016-03-22T06:09:45.726Z,3536
2016-03-22T06:10:58.932Z,3576
2016-03-22T06:11:45.747Z,2980
2016-03-22T06:12:39.577Z,2700
2016-03-22T06:13:39.518Z,2732
2016-03-22T06:14:39.489Z,2856
2016-03-22T06:15:39.617Z,2968
2016-03-22T06:16:39.541Z,3096
2016-03-22T06:17:39.560Z,3228
2016-03-22T06:18:39.577Z,3352
2016-03-22T06:19:39.580Z,3468
2016-03-22T06:20:39.709Z,3604
2016-03-22T06:21:39.836Z,3760
2016-03-22T06:22:52.386Z,4020
2016-03-22T06:23:39.904Z,4296
2016-03-22T06:24:39.704Z,4992
2016-03-22T06:25:39.738Z,5244
2016-03-22T06:26:39.756Z,5284
2016-03-22T06:27:39.821Z,5404
2016-03-22T06:28:39.761Z,5408
2016-03-22T06:29:39.796Z,5348
2016-03-22T06:30:39.767Z,5552
2016-03-22T06:31:52.535Z,5212
2016-03-22T06:32:46.132Z,5216
2016-03-22T06:34:05.603Z,5700
2016-03-22T06:34:43.887Z,5972
2016-03-22T06:36:15.221Z,6244
2016-03-22T06:36:59.112Z,6268
2016-03-22T06:37:59.129Z,7044
2016-03-22T06:38:59.820Z,8232
2016-03-22T06:39:59.212Z,8100
2016-03-22T06:40:59.278Z,7588
2016-03-22T06:41:59.828Z,7396
2016-03-22T06:42:59.345Z,7100
2016-03-22T06:43:59.240Z,7132
2016-03-22T06:45:00.648Z,7260
2016-03-22T06:46:12.011Z,7472
2016-03-22T06:47:01.294Z,7832
2016-03-22T06:49:02.393Z,8496
2016-03-22T06:50:02.443Z,8616
2016-03-22T06:51:02.476Z,8924
2016-03-22T06:52:02.557Z,10672
2016-03-22T06:53:02.482Z,10800
2016-03-22T06:54:03.094Z,9840
2016-03-22T06:55:09.019Z,9940
2016-03-22T06:56:02.584Z,9904
2016-03-22T06:57:02.540Z,9536
2016-03-22T06:58:15.264Z,18208
2016-03-22T06:59:08.858Z,14720
2016-03-22T07:00:15.348Z,13472
2016-03-22T07:01:02.629Z,13692
2016-03-22T07:02:02.631Z,10108
2016-03-22T07:03:02.681Z,7996
2016-03-22T07:04:09.043Z,6628
2016-03-22T07:05:08.967Z,5800
2016-03-22T07:06:02.721Z,5984
2016-03-22T07:07:09.035Z,6224
2016-03-22T07:08:09.043Z,6696
2016-03-22T07:09:15.626Z,7104
2016-03-22T07:10:02.892Z,7308
2016-03-22T07:11:02.942Z,7532
2016-03-22T07:12:03.288Z,7760
2016-03-22T07:13:02.948Z,7868
2016-03-22T07:14:02.966Z,7892
2016-03-22T07:15:02.906Z,7516
2016-03-22T07:16:03.111Z,7212
2016-03-22T07:17:09.395Z,6148
2016-03-22T07:18:10.648Z,5520
2016-03-22T07:19:10.635Z,5212
2016-03-22T07:20:03.138Z,4856
2016-03-22T07:21:02.999Z,4616
2016-03-22T07:22:03.158Z,4460
2016-03-22T07:23:03.083Z,4252
2016-03-22T07:24:03.085Z,3936
2016-03-22T07:25:03.088Z,3696
2016-03-22T07:26:03.123Z,3556
2016-03-22T07:27:03.140Z,3592
2016-03-22T07:28:03.190Z,3920
2016-03-22T07:29:16.118Z,4364
2016-03-22T07:30:04.665Z,4612
2016-03-22T07:31:22.467Z,4820
2016-03-22T07:32:15.970Z,4912
2016-03-22T07:33:28.925Z,5056
2016-03-22T07:34:15.990Z,5076
2016-03-22T07:35:34.587Z,5344
2016-03-22T07:36:15.996Z,5476
2016-03-22T07:37:03.309Z,5820
2016-03-22T07:38:03.311Z,6348
2016-03-22T07:39:03.345Z,6900
2016-03-22T07:40:03.973Z,7548
2016-03-22T07:41:04.022Z,8180
2016-03-22T07:42:04.103Z,8776
2016-03-22T07:43:04.121Z,9360
2016-03-22T07:44:03.562Z,9840
2016-03-22T07:45:03.455Z,10212
2016-03-22T07:46:16.226Z,10740
2016-03-22T07:47:16.213Z,11332
2016-03-22T07:48:22.841Z,11992
2016-03-22T07:49:09.810Z,12220
2016-03-22T07:50:29.206Z,12296
2016-03-22T07:51:03.566Z,12280
2016-03-22T07:53:06.195Z,12020
2016-03-22T07:53:18.823Z,11976
2016-03-22T07:54:18.982Z,11904
2016-03-22T07:55:31.593Z,12112
2016-03-22T07:56:18.940Z,12196
2016-03-22T07:57:18.896Z,12092
2016-03-22T07:58:18.915Z,12068
2016-03-22T07:59:25.292Z,12016
2016-03-22T08:00:19.029Z,11888
2016-03-22T08:01:19.016Z,11716
2016-03-22T08:02:19.081Z,11496
2016-03-22T08:03:19.162Z,11376
2016-03-22T08:04:19.056Z,11336
2016-03-22T08:05:19.323Z,11340
2016-03-22T08:06:19.046Z,11564
2016-03-22T08:07:19.267Z,11744
2016-03-22T08:08:25.473Z,11920
2016-03-22T08:09:19.256Z,11976
2016-03-22T08:10:19.119Z,11528
2016-03-22T08:11:19.325Z,10976
2016-03-22T08:12:38.358Z,11028
2016-03-22T08:13:31.970Z,11340
2016-03-22T08:14:19.208Z,11632
2016-03-22T08:15:19.225Z,11916
2016-03-22T08:16:19.260Z,12388
2016-03-22T08:17:19.106Z,12380
2016-03-22T08:18:32.094Z,11768
2016-03-22T08:19:19.299Z,11608
2016-03-22T08:20:45.005Z,11604
2016-03-22T08:21:28.882Z,11712
2016-03-22T08:22:48.120Z,11848
2016-03-22T08:23:28.966Z,11936
2016-03-22T08:24:48.203Z,11680
2016-03-22T08:25:28.909Z,11424
2016-03-22T08:26:28.990Z,11212
2016-03-22T08:27:29.211Z,11232
2016-03-22T08:28:29.058Z,10804
2016-03-22T08:29:29.046Z,9856
2016-03-22T08:30:35.344Z,9912
2016-03-22T08:31:29.096Z,9732
2016-03-22T08:32:48.428Z,9560
2016-03-22T08:33:29.243Z,9452
2016-03-22T08:34:54.933Z,9304
2016-03-22T08:35:29.482Z,9428
2016-03-22T08:36:29.297Z,9552
2016-03-22T08:37:29.457Z,10072
2016-03-22T08:38:35.600Z,10404
2016-03-22T08:39:29.275Z,10552
2016-03-22T08:40:29.325Z,10836
2016-03-22T08:41:29.405Z,10760
2016-03-22T08:42:29.330Z,10740
2016-03-22T08:43:42.145Z,10948
2016-03-22T08:44:29.367Z,11016
2016-03-22T08:45:42.119Z,10976
2016-03-22T08:46:29.386Z,10920
2016-03-22T08:47:30.812Z,10884
2016-03-22T08:48:29.471Z,10844
2016-03-22T08:49:42.192Z,11176
2016-03-22T08:50:29.508Z,11504
2016-03-22T08:51:29.494Z,11532
2016-03-22T08:52:42.200Z,11752
2016-03-22T08:53:29.515Z,12188
2016-03-22T08:54:29.550Z,12440
2016-03-22T08:55:30.115Z,11772
2016-03-22T08:56:42.304Z,10988
2016-03-22T08:57:29.605Z,9756
2016-03-22T08:58:29.623Z,7236
2016-03-22T08:59:42.376Z,7824
2016-03-22T09:00:30.347Z,9168
2016-03-22T09:01:29.772Z,8980
2016-03-22T09:02:30.446Z,8336
2016-03-22T09:03:29.698Z,7796
2016-03-22T09:04:29.748Z,7052
2016-03-22T09:05:29.782Z,6648
2016-03-22T09:06:29.770Z,7824
2016-03-22T09:07:42.566Z,9064
2016-03-22T09:08:36.162Z,9668
2016-03-22T09:09:49.056Z,9700
2016-03-22T09:10:29.902Z,8644
2016-03-22T09:11:29.905Z,8136
2016-03-22T09:12:36.142Z,9300
2016-03-22T09:13:29.926Z,9768
2016-03-22T09:14:29.960Z,8364
2016-03-22T09:15:29.963Z,8380
2016-03-22T09:16:30.090Z,9740
2016-03-22T09:17:30.014Z,9812
2016-03-22T09:18:30.063Z,9472
2016-03-22T09:19:36.552Z,9360
2016-03-22T09:20:30.069Z,9524
2016-03-22T09:22:39.465Z,10292
2016-03-22T09:23:33.218Z,11112
2016-03-22T09:24:33.174Z,11476
2016-03-22T09:25:39.582Z,11396
2016-03-22T09:26:33.274Z,11860
2016-03-22T09:27:46.010Z,12168
2016-03-22T09:28:33.528Z,12392
2016-03-22T09:29:33.312Z,13244
2016-03-22T09:30:39.659Z,14060
2016-03-22T09:31:46.084Z,14056
2016-03-22T09:32:33.398Z,13720
2016-03-22T09:33:33.229Z,12832
2016-03-22T09:34:33.514Z,12380
2016-03-22T09:35:33.453Z,12416
2016-03-22T09:36:46.238Z,12412
2016-03-22T09:37:33.443Z,12256
2016-03-22T09:38:46.258Z,12052
2016-03-22T09:39:33.495Z,12396
2016-03-22T09:40:52.733Z,12636
2016-03-22T09:41:34.986Z,12676
2016-03-22T09:42:33.581Z,12364
2016-03-22T09:43:46.319Z,12188
2016-03-22T09:44:33.618Z,12132
2016-03-22T09:45:33.669Z,11344
2016-03-22T09:46:33.671Z,11380
2016-03-22T09:47:33.674Z,11744
2016-03-22T09:48:33.722Z,11876
2016-03-22T09:49:33.788Z,13044
2016-03-22T09:50:33.838Z,13960
2016-03-22T09:51:33.855Z,13144
2016-03-22T09:52:33.843Z,11512
2016-03-22T09:53:34.408Z,9844
2016-03-22T09:54:33.879Z,8860
2016-03-22T09:55:46.711Z,9476
2016-03-22T09:56:34.791Z,9952
2016-03-22T09:57:48.029Z,11796
2016-03-22T09:58:34.499Z,13772
2016-03-22T09:59:33.924Z,13864
2016-03-22T10:00:34.646Z,13732
2016-03-22T10:01:33.976Z,14728
2016-03-22T10:02:33.979Z,15008
2016-03-22T10:03:46.732Z,14832
2016-03-22T10:04:34.015Z,14784
2016-03-22T10:05:46.769Z,15428
2016-03-22T10:06:34.037Z,16352
2016-03-22T10:07:34.086Z,16736
2016-03-22T10:08:34.121Z,17152
2016-03-22T10:09:34.123Z,17632
2016-03-22T10:10:34.376Z,18240
2016-03-22T10:11:34.206Z,18432
2016-03-22T10:12:34.162Z,18272
2016-03-22T10:13:34.447Z,17440
2016-03-22T10:14:46.965Z,16896
2016-03-22T10:15:34.249Z,16768
2016-03-22T10:16:34.298Z,17248
2016-03-22T10:17:34.285Z,17216
2016-03-22T10:18:40.710Z,16256
2016-03-22T10:19:34.541Z,15120
2016-03-22T10:20:34.340Z,14584
2016-03-22T10:21:40.655Z,14656
2016-03-22T10:22:34.408Z,13684
2016-03-22T10:23:34.395Z,10788
2016-03-22T10:24:34.538Z,8432
2016-03-22T10:25:34.463Z,6124
2016-03-22T10:26:40.857Z,4752
2016-03-22T10:27:40.749Z,4460
2016-03-22T10:28:34.534Z,4276
2016-03-22T10:29:34.583Z,3932
2016-03-22T10:30:34.632Z,3860
2016-03-22T10:31:34.604Z,3516
2016-03-22T10:32:34.623Z,3168
2016-03-22T10:33:34.609Z,3372
2016-03-22T10:34:34.675Z,4040
2016-03-22T10:35:34.662Z,5248
2016-03-22T10:36:34.712Z,6264
2016-03-22T10:37:34.745Z,6640
2016-03-22T10:38:34.748Z,7564
2016-03-22T10:39:34.814Z,8700
2016-03-22T10:40:34.753Z,10056
2016-03-22T10:41:34.833Z,11260
2016-03-22T10:42:47.539Z,12752
2016-03-22T10:43:34.839Z,13444
2016-03-22T10:44:54.061Z,14128
2016-03-22T10:45:35.501Z,14028
2016-03-22T10:46:34.910Z,12816
2016-03-22T10:47:47.631Z,12300
2016-03-22T10:48:35.041Z,12608
2016-03-22T10:49:34.950Z,13252
2016-03-22T10:50:35.030Z,14864
2016-03-22T10:51:35.001Z,15936
2016-03-22T10:52:35.129Z,16032
2016-03-22T10:53:35.054Z,15088
2016-03-22T10:54:35.057Z,14156
2016-03-22T10:55:41.403Z,12868
2016-03-22T10:56:35.062Z,11132
2016-03-22T10:57:47.721Z,9184
2016-03-22T10:58:35.129Z,9468
2016-03-22T10:59:35.133Z,10896
2016-03-22T11:00:35.182Z,12780
2016-03-22T11:01:35.356Z,13956
2016-03-22T11:02:35.188Z,14544
2016-03-22T11:03:47.985Z,15968
2016-03-22T11:04:41.498Z,16768
2016-03-22T11:05:54.447Z,17216
2016-03-22T11:06:35.146Z,17600
2016-03-22T11:07:35.316Z,18208
2016-03-22T11:08:35.313Z,18688
2016-03-22T11:09:35.313Z,19072
2016-03-22T11:10:35.954Z,19168
2016-03-22T11:11:35.376Z,19104
2016-03-22T11:12:35.408Z,18720
2016-03-22T11:13:41.690Z,17760
2016-03-22T11:14:41.708Z,16672
2016-03-22T11:15:35.445Z,15564
2016-03-22T11:16:35.493Z,14784
2016-03-22T11:17:41.760Z,13348
2016-03-22T11:18:35.716Z,11476
2016-03-22T11:19:35.545Z,9272
2016-03-22T11:20:35.563Z,7756
2016-03-22T11:21:35.566Z,6680
2016-03-22T11:22:35.615Z,6248
2016-03-22T11:23:35.618Z,5916
2016-03-22T11:24:37.058Z,5328
2016-03-22T11:25:35.639Z,5072
2016-03-22T11:26:35.642Z,5160
2016-03-22T11:27:35.801Z,4824
2016-03-22T11:28:37.303Z,5156
2016-03-22T11:29:48.462Z,7200
2016-03-22T11:30:35.761Z,8968
2016-03-22T11:31:35.890Z,9676
2016-03-22T11:32:42.048Z,10580
2016-03-22T11:33:35.817Z,13288
2016-03-22T11:34:36.475Z,15452
2016-03-22T11:35:35.837Z,16448
2016-03-22T11:36:35.856Z,16768
2016-03-22T11:37:35.922Z,16896
2016-03-22T11:38:42.205Z,16064
2016-03-22T11:39:35.957Z,16000
2016-03-22T11:40:42.930Z,15660
2016-03-22T11:41:35.994Z,14636
2016-03-22T11:42:55.200Z,11816
2016-03-22T11:43:36.000Z,10260
2016-03-22T11:44:36.065Z,8280
2016-03-22T11:45:37.474Z,6624
2016-03-22T11:46:36.133Z,5688
2016-03-22T11:47:36.104Z,4892
2016-03-22T11:48:36.122Z,4556
2016-03-22T11:49:55.359Z,4804
2016-03-22T11:50:48.894Z,5112
2016-03-22T11:52:01.880Z,5920
2016-03-22T11:52:36.212Z,6236
2016-03-22T11:53:36.807Z,7644
2016-03-22T11:54:36.248Z,9580
2016-03-22T11:55:36.266Z,11472
2016-03-22T11:56:36.285Z,12576
2016-03-22T11:57:49.068Z,13024
2016-03-22T11:58:36.524Z,13092
2016-03-22T11:59:36.402Z,12756
2016-03-22T12:00:36.389Z,12268
2016-03-22T12:01:36.423Z,11864
2016-03-22T12:02:36.785Z,11412
2016-03-22T12:03:36.428Z,10728
2016-03-22T12:04:36.462Z,9796
2016-03-22T12:05:36.668Z,8652
2016-03-22T12:06:36.686Z,7344
2016-03-22T12:07:36.533Z,6648
2016-03-22T12:08:36.535Z,7036
2016-03-22T12:09:49.273Z,7656
2016-03-22T12:10:36.775Z,7808
2016-03-22T12:11:36.591Z,7728
2016-03-22T12:12:36.594Z,7704
2016-03-22T12:13:36.643Z,7916
2016-03-22T12:14:49.364Z,8376
2016-03-22T12:15:36.664Z,8656
2016-03-22T12:16:36.697Z,8856
2016-03-22T12:17:36.700Z,8872
2016-03-22T12:18:36.749Z,8900
2016-03-22T12:19:43.019Z,8896
2016-03-22T12:20:36.755Z,8680
2016-03-22T12:21:49.524Z,7720
2016-03-22T12:22:36.808Z,6748
2016-03-22T12:23:36.826Z,5740
2016-03-22T12:24:43.141Z,5672
2016-03-22T12:25:43.144Z,6348
2016-03-22T12:26:36.990Z,6248
2016-03-22T12:27:36.883Z,5936
2016-03-22T12:28:49.683Z,5784
2016-03-22T12:29:49.717Z,5856
2016-03-22T12:30:56.173Z,5912
2016-03-22T12:31:36.988Z,6008
2016-03-22T12:33:02.850Z,6344
2016-03-22T12:33:43.306Z,6428
2016-03-22T12:34:37.027Z,6512
2016-03-22T12:35:49.796Z,6332
2016-03-22T12:36:37.798Z,6012
2016-03-22T12:38:02.816Z,5084
2016-03-22T12:38:46.742Z,4932
2016-03-22T12:39:46.775Z,4872
2016-03-22T12:40:46.762Z,4988
2016-03-22T12:41:46.797Z,5320
2016-03-22T12:42:46.767Z,4960
2016-03-22T12:43:48.239Z,4572
2016-03-22T12:44:46.804Z,4524
2016-03-22T12:45:59.698Z,4256
2016-03-22T12:46:53.153Z,4164
2016-03-22T12:48:06.110Z,4736
2016-03-22T12:48:46.925Z,5060
2016-03-22T12:50:12.630Z,5332
2016-03-22T12:50:46.899Z,5216
2016-03-22T12:51:46.980Z,5020
2016-03-22T12:52:47.030Z,4888
2016-03-22T12:53:53.282Z,4580
2016-03-22T12:54:47.065Z,4024
2016-03-22T12:55:47.069Z,3428
2016-03-22T12:56:59.899Z,3680
2016-03-22T12:57:47.074Z,3996
2016-03-22T12:58:47.185Z,3376
2016-03-22T12:59:59.892Z,2676
2016-03-22T13:00:47.237Z,3196
2016-03-22T13:02:00.818Z,3568
2016-03-22T13:02:47.196Z,3672
2016-03-22T13:03:47.199Z,3436
2016-03-22T13:04:47.233Z,2864
2016-03-22T13:05:47.829Z,2992
2016-03-22T13:06:47.286Z,2992
2016-03-22T13:08:00.042Z,3456
2016-03-22T13:08:47.296Z,4156
2016-03-22T13:09:47.314Z,5224
2016-03-22T13:10:47.942Z,6248
2016-03-22T13:12:00.100Z,7236
2016-03-22T13:12:47.369Z,7576
2016-03-22T13:14:06.653Z,7484
2016-03-22T13:14:54.249Z,7308
2016-03-22T13:16:18.721Z,6912
2016-03-22T13:16:48.849Z,6768
2016-03-22T13:18:47.463Z,5812
2016-03-22T13:19:47.497Z,5652
2016-03-22T13:20:47.984Z,5940
2016-03-22T13:21:48.159Z,5632
2016-03-22T13:22:47.583Z,5176
2016-03-22T13:23:47.570Z,4568
2016-03-22T13:24:47.682Z,3712
2016-03-22T13:26:00.340Z,3204
2016-03-22T13:26:47.626Z,3160
2016-03-22T13:27:47.643Z,3072
2016-03-22T13:28:47.662Z,2952
2016-03-22T13:29:48.306Z,2992
2016-03-22T13:30:53.964Z,3568
2016-03-22T13:31:47.701Z,4296
2016-03-22T13:33:00.470Z,4452
2016-03-22T13:33:47.737Z,4600
2016-03-22T13:34:47.865Z,4540
2016-03-22T13:35:47.774Z,4588
2016-03-22T13:39:05.767Z,5532
2016-03-22T13:40:05.786Z,5660
2016-03-22T13:41:05.991Z,4924
2016-03-22T13:42:05.806Z,4872
2016-03-22T13:43:05.825Z,5664
2016-03-22T13:44:06.062Z,6272
2016-03-22T13:45:05.924Z,4760
2016-03-22T13:46:05.910Z,3596
2016-03-22T13:47:05.991Z,3276
2016-03-22T13:48:06.010Z,3732
2016-03-22T13:49:12.200Z,5772
2016-03-22T13:50:05.985Z,6628
2016-03-22T13:51:25.426Z,6948
2016-03-22T13:52:12.254Z,7456
2016-03-22T13:53:06.008Z,7056
2016-03-22T13:54:06.213Z,6348
2016-03-22T13:55:06.060Z,5684
2016-03-22T13:56:06.078Z,5456
2016-03-22T13:57:06.081Z,5216
2016-03-22T13:58:06.193Z,4168
2016-03-22T13:59:06.133Z,3932
2016-03-22T14:00:18.918Z,5860
2016-03-22T14:01:06.170Z,7460
2016-03-22T14:02:06.235Z,8508
2016-03-22T14:03:06.222Z,9296
2016-03-22T14:04:06.209Z,9896
2016-03-22T14:05:06.071Z,10264
2016-03-22T14:06:06.245Z,10664
2016-03-22T14:07:06.264Z,10856